createdAt,value
2022-09-30T00:01:52.794Z,3.72
2022-09-30T00:04:21.869Z,3.70
2022-09-30T00:06:49.877Z,3.25
2022-09-30T00:09:16.819Z,5.55
2022-09-30T00:11:45.351Z,3.70
2022-09-30T00:14:15.989Z,8.07
2022-09-30T00:16:43.090Z,5.35
2022-09-30T00:19:10.013Z,4.70
2022-09-30T00:21:36.746Z,4.25
2022-09-30T00:24:04.435Z,6.88
2022-09-30T00:26:31.974Z,3.90
2022-09-30T00:29:01.291Z,4.30
2022-09-30T00:31:30.385Z,4.25
2022-09-30T00:33:57.282Z,4.55
2022-09-30T00:36:23.924Z,4.15
2022-09-30T00:38:50.527Z,3.63
2022-09-30T00:41:17.232Z,3.97
2022-09-30T00:43:47.007Z,4.85
2022-09-30T00:46:21.202Z,4.05
2022-09-30T00:48:51.384Z,3.80
2022-09-30T00:51:18.374Z,4.20
2022-09-30T00:53:51.093Z,7.05
2022-09-30T00:56:20.731Z,3.95
2022-09-30T00:58:53.180Z,4.03
2022-09-30T01:01:22.738Z,3.40
2022-09-30T01:03:54.417Z,3.38
2022-09-30T01:06:22.484Z,3.15
2022-09-30T01:08:49.976Z,5.82
2022-09-30T01:11:17.177Z,6.03
2022-09-30T01:13:48.730Z,4.53
2022-09-30T01:16:32.585Z,5.22
2022-09-30T01:19:20.936Z,5.40
2022-09-30T01:22:06.985Z,3.40
2022-09-30T01:25:01.260Z,3.42
2022-09-30T01:27:44.323Z,3.53
2022-09-30T01:30:15.750Z,3.50
2022-09-30T01:33:02.117Z,3.45
2022-09-30T01:35:39.315Z,6.13
2022-09-30T01:38:13.840Z,4.43
2022-09-30T01:40:48.279Z,3.10
2022-09-30T01:43:24.229Z,4.47
2022-09-30T01:45:56.371Z,4.95
2022-09-30T01:48:30.299Z,2.95
2022-09-30T01:51:02.077Z,7.38
2022-09-30T01:53:35.321Z,7.75
2022-09-30T01:56:06.006Z,7.88
2022-09-30T01:58:40.468Z,4.03
2022-09-30T02:01:12.002Z,3.50
2022-09-30T02:03:47.334Z,5.95
2022-09-30T02:06:19.042Z,5.93
2022-09-30T02:08:51.220Z,4.30
2022-09-30T02:11:22.034Z,4.18
2022-09-30T02:13:51.688Z,4.70
2022-09-30T02:16:23.555Z,4.28
2022-09-30T02:18:55.073Z,3.47
2022-09-30T02:21:28.359Z,4.03
2022-09-30T02:24:00.703Z,6.15
2022-09-30T02:26:30.161Z,7.30
2022-09-30T02:31:28.330Z,3.45
2022-09-30T02:34:06.062Z,4.32
2022-09-30T02:36:36.918Z,6.72
2022-09-30T02:39:07.704Z,5.50
2022-09-30T02:41:40.535Z,4.28
2022-09-30T02:44:07.496Z,4.22
2022-09-30T02:46:42.315Z,3.90
2022-09-30T02:49:22.166Z,6.07
2022-09-30T02:52:05.308Z,4.70
2022-09-30T02:54:36.086Z,3.92
2022-09-30T02:57:14.087Z,7.30
2022-09-30T02:59:40.709Z,4.18
2022-09-30T03:02:07.455Z,5.07
2022-09-30T03:04:39.388Z,4.45
2022-09-30T03:07:06.092Z,5.07
2022-09-30T03:09:35.230Z,5.82
2022-09-30T03:12:13.177Z,4.25
2022-09-30T03:14:51.513Z,5.22
2022-09-30T03:17:52.297Z,5.00
2022-09-30T03:20:37.721Z,4.18
2022-09-30T03:23:38.690Z,6.88
2022-09-30T03:26:16.419Z,3.83
2022-09-30T03:28:52.926Z,3.67
2022-09-30T03:31:27.181Z,7.30
2022-09-30T03:33:59.340Z,3.65
2022-09-30T03:36:36.660Z,6.32
2022-09-30T03:39:12.255Z,4.05
2022-09-30T03:41:43.432Z,4.60
2022-09-30T03:44:15.261Z,6.50
2022-09-30T03:46:46.270Z,4.35
2022-09-30T03:49:20.200Z,5.05
2022-09-30T03:51:50.862Z,4.80
2022-09-30T03:54:17.799Z,4.78
2022-09-30T03:56:44.646Z,5.90
2022-09-30T03:59:12.801Z,6.75
2022-09-30T04:01:39.542Z,3.97
2022-09-30T04:04:06.672Z,5.55
2022-09-30T04:06:33.713Z,5.40
2022-09-30T04:09:02.053Z,6.13
2022-09-30T04:11:29.162Z,8.35
2022-09-30T04:13:55.994Z,10.23
2022-09-30T04:16:22.807Z,7.22
2022-09-30T04:18:50.618Z,4.18
2022-09-30T04:21:17.268Z,7.78
2022-09-30T04:23:44.209Z,6.53
2022-09-30T04:26:14.781Z,6.18
2022-09-30T04:28:41.827Z,4.32
2022-09-30T04:31:10.889Z,11.77
2022-09-30T04:33:39.996Z,4.53
2022-09-30T04:36:07.301Z,6.53
2022-09-30T04:38:33.988Z,4.65
2022-09-30T04:41:03.318Z,4.93
2022-09-30T04:43:32.439Z,6.53
2022-09-30T04:45:59.142Z,5.57
2022-09-30T04:48:26.283Z,4.45
2022-09-30T04:50:52.918Z,6.88
2022-09-30T04:53:20.020Z,8.50
2022-09-30T04:55:46.789Z,7.95
2022-09-30T04:58:13.732Z,5.82
2022-09-30T05:00:41.948Z,4.72
2022-09-30T05:03:08.892Z,5.45
2022-09-30T05:05:35.531Z,3.70
2022-09-30T05:08:02.847Z,3.70
2022-09-30T05:10:29.891Z,4.43
2022-09-30T05:12:57.347Z,4.80
2022-09-30T05:15:24.681Z,4.55
2022-09-30T05:17:53.083Z,3.83
2022-09-30T05:20:21.505Z,5.20
2022-09-30T05:22:48.428Z,3.70
2022-09-30T05:25:15.399Z,6.88
2022-09-30T05:27:42.094Z,3.92
2022-09-30T05:30:09.674Z,6.28
2022-09-30T05:32:36.356Z,5.15
2022-09-30T05:35:05.307Z,4.47
2022-09-30T05:37:32.116Z,4.38
2022-09-30T05:39:58.805Z,3.97
2022-09-30T05:42:25.444Z,4.00
2022-09-30T05:44:52.358Z,4.88
2022-09-30T05:47:19.009Z,5.07
2022-09-30T05:49:45.837Z,3.70
2022-09-30T05:52:13.902Z,3.30
2022-09-30T05:54:40.765Z,3.17
2022-09-30T05:57:07.454Z,2.70
2022-09-30T05:59:34.231Z,3.45
2022-09-30T06:02:00.958Z,6.10
2022-09-30T06:04:27.659Z,3.05
2022-09-30T06:06:54.423Z,3.58
2022-09-30T06:09:22.799Z,2.95
2022-09-30T06:11:49.661Z,3.87
2022-09-30T06:14:16.447Z,3.10
2022-09-30T06:16:43.109Z,3.33
2022-09-30T06:19:10.152Z,3.97
2022-09-30T06:21:36.850Z,4.65
2022-09-30T06:24:03.825Z,5.07
2022-09-30T06:26:31.965Z,4.60
2022-09-30T06:28:58.606Z,4.13
2022-09-30T06:31:32.534Z,3.55
2022-09-30T06:33:59.392Z,2.95
2022-09-30T06:36:26.097Z,2.90
2022-09-30T06:38:52.868Z,8.10
2022-09-30T06:41:19.591Z,3.30
2022-09-30T06:43:47.804Z,3.70
2022-09-30T06:46:19.025Z,3.60
2022-09-30T06:48:48.850Z,4.78
2022-09-30T06:51:15.582Z,3.47
2022-09-30T06:53:42.312Z,3.13
2022-09-30T06:56:09.242Z,3.85
2022-09-30T06:58:35.991Z,4.13
2022-09-30T07:01:06.334Z,4.05
2022-09-30T07:03:35.102Z,3.35
2022-09-30T07:06:04.919Z,4.35
2022-09-30T07:08:33.918Z,6.40
2022-09-30T07:11:02.341Z,4.43
2022-09-30T07:13:29.151Z,7.35
2022-09-30T07:15:56.079Z,5.05
2022-09-30T07:18:24.900Z,7.00
2022-09-30T07:20:53.385Z,4.47
2022-09-30T07:23:25.826Z,6.82
2022-09-30T07:25:55.702Z,6.45
2022-09-30T07:28:22.981Z,7.10
2022-09-30T07:30:49.661Z,6.80
2022-09-30T07:33:16.288Z,9.65
2022-09-30T07:35:52.246Z,6.55
2022-09-30T07:38:20.191Z,5.47
2022-09-30T07:40:54.663Z,5.68
2022-09-30T07:43:21.405Z,8.23
2022-09-30T07:45:48.984Z,5.15
2022-09-30T07:48:15.951Z,3.85
2022-09-30T07:50:46.810Z,3.95
2022-09-30T07:53:15.087Z,4.07
2022-09-30T07:55:41.828Z,4.45
2022-09-30T07:58:08.533Z,3.80
2022-09-30T08:00:42.710Z,3.33
2022-09-30T08:03:09.940Z,3.70
2022-09-30T08:05:39.424Z,5.25
2022-09-30T08:08:07.225Z,6.00
2022-09-30T08:10:41.495Z,3.55
2022-09-30T08:13:14.367Z,3.92
2022-09-30T08:15:41.108Z,9.27
2022-09-30T08:18:08.896Z,5.30
2022-09-30T08:20:55.106Z,8.27
2022-09-30T08:23:31.172Z,5.43
2022-09-30T08:26:03.032Z,5.45
2022-09-30T08:28:43.586Z,6.40
2022-09-30T08:31:25.759Z,8.70
2022-09-30T08:33:53.633Z,6.10
2022-09-30T08:36:22.307Z,6.20
2022-09-30T08:39:01.449Z,5.68
2022-09-30T08:41:45.708Z,4.45
2022-09-30T08:44:31.917Z,6.88
2022-09-30T08:47:10.427Z,4.65
2022-09-30T08:49:54.822Z,7.10
2022-09-30T08:52:48.955Z,5.43
2022-09-30T08:55:21.158Z,4.05
2022-09-30T08:57:50.263Z,3.97
2022-09-30T09:00:18.764Z,6.20
2022-09-30T09:03:05.640Z,5.55
2022-09-30T09:05:48.529Z,5.13
2022-09-30T09:08:29.408Z,2.72
2022-09-30T09:11:13.088Z,4.68
2022-09-30T09:13:50.247Z,2.75
2022-09-30T09:16:24.326Z,4.15
2022-09-30T09:18:59.512Z,3.58
2022-09-30T09:21:36.934Z,2.58
2022-09-30T09:24:05.891Z,2.30
2022-09-30T09:26:36.534Z,2.75
2022-09-30T09:29:23.136Z,2.55
2022-09-30T09:31:50.071Z,3.05
2022-09-30T09:34:16.840Z,3.38
2022-09-30T09:36:58.715Z,4.20
2022-09-30T09:39:55.157Z,3.63
2022-09-30T09:42:34.997Z,4.72
2022-09-30T09:45:11.006Z,2.60
2022-09-30T09:47:37.754Z,3.90
2022-09-30T09:50:13.781Z,2.22
2022-09-30T09:52:55.282Z,2.05
2022-09-30T09:55:22.678Z,4.25
2022-09-30T09:58:05.390Z,2.92
2022-09-30T10:00:33.431Z,2.50
2022-09-30T10:03:02.391Z,2.80
2022-09-30T10:05:38.267Z,3.25
2022-09-30T10:08:16.541Z,5.45
2022-09-30T10:10:49.390Z,2.65
2022-09-30T10:13:19.240Z,2.97
2022-09-30T10:15:48.348Z,2.22
2022-09-30T10:18:23.365Z,2.63
2022-09-30T10:20:52.722Z,2.63
2022-09-30T10:26:16.633Z,3.85
2022-09-30T10:28:47.509Z,2.50
2022-09-30T10:31:22.938Z,2.70
2022-09-30T10:33:57.142Z,2.35
2022-09-30T10:36:31.792Z,2.65
2022-09-30T10:39:06.560Z,4.18
2022-09-30T10:41:35.875Z,2.50
2022-09-30T10:53:57.315Z,8.30
2022-09-30T14:21:18.803Z,1.00
2022-09-30T14:23:45.464Z,2.70
2022-09-30T14:26:36.719Z,0.77
2022-09-30T14:29:12.362Z,4.50
2022-09-30T14:31:44.086Z,3.17
2022-09-30T14:34:12.322Z,5.82
2022-09-30T14:36:39.877Z,1.58
2022-09-30T14:39:14.722Z,4.18
2022-09-30T14:41:49.079Z,2.33
2022-09-30T14:44:17.535Z,1.65
2022-09-30T14:46:46.994Z,1.10
2022-09-30T14:49:17.729Z,1.23
2022-09-30T14:51:46.634Z,2.20
2022-09-30T14:54:18.808Z,1.95
2022-09-30T14:56:47.592Z,2.28
2022-09-30T14:59:20.061Z,3.03
2022-09-30T15:01:49.635Z,2.20
2022-09-30T15:04:19.926Z,7.40
2022-09-30T15:06:49.736Z,3.15
2022-09-30T15:09:20.983Z,1.30
2022-09-30T15:11:49.133Z,8.02
2022-09-30T15:14:18.533Z,2.75
2022-09-30T15:16:47.163Z,2.75
2022-09-30T15:19:19.172Z,2.45
2022-09-30T15:21:48.165Z,1.95
2022-09-30T15:24:16.758Z,1.55
2022-09-30T15:26:44.442Z,3.58
2022-09-30T15:29:13.818Z,4.30
2022-09-30T15:34:19.199Z,4.57
2022-09-30T15:36:57.656Z,2.15
2022-09-30T15:39:26.918Z,5.53
2022-09-30T15:44:37.696Z,10.27
2022-09-30T15:47:06.823Z,5.75
2022-09-30T15:49:45.327Z,2.85
2022-09-30T15:52:28.115Z,5.13
2022-09-30T15:54:55.805Z,6.78
2022-09-30T15:57:45.744Z,5.68
2022-09-30T16:00:36.713Z,5.00
2022-09-30T16:03:16.438Z,6.05
2022-09-30T16:05:43.728Z,4.88
2022-09-30T16:08:19.686Z,10.02
2022-09-30T16:10:50.384Z,6.40
2022-09-30T16:13:17.210Z,5.20
2022-09-30T16:15:45.713Z,3.58
2022-09-30T16:18:21.495Z,4.23
2022-09-30T16:20:57.426Z,5.82
2022-09-30T16:23:30.273Z,6.00
2022-09-30T16:26:18.011Z,8.38
2022-09-30T16:28:45.077Z,4.43
2022-09-30T16:31:14.011Z,4.50
2022-09-30T16:33:42.432Z,9.98
2022-09-30T16:36:10.371Z,5.57
2022-09-30T16:38:37.450Z,5.60
2022-09-30T16:41:05.021Z,4.25
2022-09-30T16:43:31.779Z,6.53
2022-09-30T16:45:59.081Z,4.80
2022-09-30T16:48:27.363Z,7.07
2022-09-30T16:51:02.319Z,5.85
2022-09-30T16:53:29.077Z,7.00
2022-09-30T16:55:56.004Z,7.30
2022-09-30T16:58:23.214Z,9.65
2022-09-30T17:00:50.050Z,4.88
2022-09-30T17:03:18.524Z,6.32
2022-09-30T17:05:47.529Z,6.70
2022-09-30T17:08:16.669Z,6.72
2022-09-30T17:10:45.676Z,4.40
2022-09-30T17:13:12.383Z,6.95
2022-09-30T17:15:39.044Z,3.08
2022-09-30T17:18:07.648Z,7.55
2022-09-30T17:20:35.993Z,7.70
2022-09-30T17:23:07.333Z,4.35
2022-09-30T17:25:34.376Z,10.95
2022-09-30T17:28:01.834Z,7.95
2022-09-30T17:30:28.632Z,8.23
2022-09-30T17:32:55.363Z,15.52
2022-09-30T17:35:22.106Z,9.05
2022-09-30T17:37:48.867Z,7.45
2022-09-30T17:40:17.269Z,9.65
2022-09-30T17:42:43.989Z,7.60
2022-09-30T17:45:11.228Z,7.15
2022-09-30T17:47:38.030Z,9.48
2022-09-30T17:50:05.382Z,7.72
2022-09-30T17:52:32.343Z,7.72
2022-09-30T17:54:58.995Z,12.32
2022-09-30T17:57:27.098Z,7.05
2022-09-30T17:59:53.838Z,9.15
2022-09-30T18:02:20.500Z,7.55
2022-09-30T18:04:47.315Z,9.95
2022-09-30T18:07:13.962Z,15.65
2022-09-30T18:09:40.731Z,9.35
2022-09-30T18:12:07.497Z,12.40
2022-09-30T18:14:35.575Z,9.27
2022-09-30T18:17:04.780Z,10.20
2022-09-30T18:19:33.723Z,12.90
2022-09-30T18:22:00.444Z,12.30
2022-09-30T18:24:27.359Z,12.77
2022-09-30T18:26:55.462Z,11.65
2022-09-30T18:29:22.288Z,12.70
2022-09-30T18:31:50.702Z,11.40
2022-09-30T18:34:17.723Z,11.05
2022-09-30T18:36:44.709Z,13.50
2022-09-30T18:39:12.440Z,18.27
2022-09-30T18:41:44.485Z,12.55
2022-09-30T18:44:13.216Z,14.43
2022-09-30T18:46:39.970Z,15.57
2022-09-30T18:49:08.529Z,11.95
2022-09-30T18:51:35.721Z,11.27
2022-09-30T18:54:02.934Z,15.40
2022-09-30T18:56:31.699Z,10.88
2022-09-30T18:58:58.797Z,14.60
2022-09-30T19:01:25.718Z,16.02
2022-09-30T19:03:52.524Z,13.70
2022-09-30T19:06:20.924Z,12.57
2022-09-30T19:08:47.752Z,11.63
2022-09-30T19:11:14.587Z,13.27
2022-09-30T19:13:42.422Z,18.35
2022-09-30T19:16:09.962Z,12.88
2022-09-30T19:18:37.401Z,17.83
2022-09-30T19:21:06.292Z,15.60
2022-09-30T19:23:34.551Z,13.50
2022-09-30T19:26:01.547Z,12.57
2022-09-30T19:28:28.732Z,11.95
2022-09-30T19:30:55.535Z,12.05
2022-09-30T19:33:22.301Z,15.50
2022-09-30T19:35:53.939Z,13.15
2022-09-30T19:38:34.942Z,11.90
2022-09-30T19:41:06.317Z,13.57
2022-09-30T19:46:02.915Z,15.43
2022-09-30T19:48:31.496Z,16.75
2022-09-30T19:50:59.549Z,11.43
2022-09-30T19:53:30.693Z,13.52
2022-09-30T19:56:03.112Z,11.35
2022-09-30T19:58:32.143Z,13.68
2022-09-30T20:00:59.164Z,16.50
2022-09-30T20:03:26.318Z,15.25
2022-09-30T20:05:57.674Z,15.60
2022-09-30T20:08:24.330Z,13.13
2022-09-30T20:10:51.061Z,15.02
2022-09-30T20:13:17.828Z,9.85
2022-09-30T20:15:46.381Z,12.63
2022-09-30T20:18:13.254Z,13.82
2022-09-30T20:20:40.085Z,11.00
2022-09-30T20:23:06.743Z,10.85
2022-09-30T20:25:34.818Z,10.93
2022-09-30T20:28:02.102Z,14.43
2022-09-30T20:30:29.028Z,12.70
2022-09-30T20:32:57.390Z,12.85
2022-09-30T20:35:24.503Z,10.98
2022-09-30T20:37:51.363Z,14.20
2022-09-30T20:40:18.545Z,12.30
2022-09-30T20:42:45.789Z,7.82
2022-09-30T20:45:14.067Z,12.68
2022-09-30T20:47:43.874Z,11.02
2022-09-30T20:50:12.581Z,15.20
2022-09-30T20:52:39.606Z,11.70
2022-09-30T20:55:07.183Z,13.32
2022-09-30T20:57:34.022Z,12.07
2022-09-30T21:00:01.984Z,13.27
2022-09-30T21:02:29.758Z,16.15
2022-09-30T21:04:57.343Z,13.57
2022-09-30T21:07:26.207Z,12.48
2022-09-30T21:09:53.873Z,13.30
2022-09-30T21:12:20.795Z,13.32
2022-09-30T21:14:47.942Z,20.17
2022-09-30T21:17:16.285Z,23.50
2022-09-30T21:19:43.252Z,14.43
2022-09-30T21:22:10.926Z,15.80
2022-09-30T21:24:39.299Z,17.80
2022-09-30T21:27:06.220Z,17.00
2022-09-30T21:29:34.346Z,17.92
2022-09-30T21:32:01.824Z,51.80
2022-09-30T21:34:28.821Z,21.42
2022-09-30T21:36:55.662Z,20.70
2022-09-30T21:39:22.879Z,18.42
2022-09-30T21:41:51.015Z,12.25
2022-09-30T21:44:17.854Z,19.75
2022-09-30T21:46:48.477Z,19.77
2022-09-30T21:49:17.287Z,17.08
2022-09-30T21:51:44.472Z,14.70
2022-09-30T21:54:11.492Z,15.95
2022-09-30T21:56:39.954Z,15.27
2022-09-30T21:59:08.041Z,13.37
2022-09-30T22:01:35.282Z,10.27
2022-09-30T22:04:03.013Z,8.77
2022-09-30T22:06:29.925Z,9.23
2022-09-30T22:08:57.327Z,12.82
2022-09-30T22:11:24.367Z,7.50
2022-09-30T22:13:52.660Z,11.13
2022-09-30T22:16:22.538Z,8.35
2022-09-30T22:18:52.343Z,10.35
2022-09-30T22:21:19.239Z,12.85
2022-09-30T22:23:46.996Z,6.80
2022-09-30T22:26:15.178Z,11.88
2022-09-30T22:28:41.755Z,7.95
2022-09-30T22:31:12.683Z,6.57
2022-09-30T22:33:40.922Z,6.53
2022-09-30T22:36:08.359Z,7.47
2022-09-30T22:38:35.024Z,8.10
2022-09-30T22:41:01.775Z,6.32
2022-09-30T22:43:28.441Z,7.65
2022-09-30T22:46:01.898Z,8.32
2022-09-30T22:48:29.349Z,6.22
2022-09-30T22:50:57.855Z,11.02
2022-09-30T22:53:24.766Z,10.20
2022-09-30T22:55:51.747Z,6.00
2022-09-30T22:58:18.433Z,8.15
2022-09-30T23:00:52.008Z,5.50
2022-09-30T23:03:18.691Z,5.00
2022-09-30T23:05:45.382Z,5.78
2022-09-30T23:08:13.462Z,6.05
2022-09-30T23:10:45.823Z,8.35
2022-09-30T23:13:12.464Z,9.88
2022-09-30T23:15:39.078Z,7.82
2022-09-30T23:18:05.773Z,6.00
2022-09-30T23:20:32.453Z,9.07
2022-09-30T23:22:59.094Z,7.70
2022-09-30T23:25:27.172Z,10.75
2022-09-30T23:27:53.896Z,8.68
2022-09-30T23:30:20.584Z,10.77
2022-09-30T23:32:47.285Z,12.13
2022-09-30T23:35:14.231Z,7.75
2022-09-30T23:37:40.975Z,10.50
2022-09-30T23:40:08.421Z,10.35
2022-09-30T23:42:36.406Z,11.32
2022-09-30T23:45:03.308Z,10.10
2022-09-30T23:47:29.991Z,13.40
2022-09-30T23:49:56.671Z,9.13
2022-09-30T23:52:23.335Z,7.72
2022-09-30T23:54:50.000Z,10.05
2022-09-30T23:57:16.644Z,10.25
2022-09-30T23:59:44.764Z,10.25
